San Diego, California
Traffic Map
Current Weather Conditions
San Diego, California
Broken Clouds
Broken Clouds
16°
Feels Like: 16°
Wind Chill: 16° Ceiling: 25000
Heat Index: 16° Visibility: 10mi
Dew Point: 11° Wind: 0mph
Humidity: 75% Direction: ° ()
Pressure: 30.19in Gusts: 0mph
Raw Report DataKSAN 200451Z 00000KT 10SM FEW030 SCT100 BKN250 16/11 A3019 RMK AO2 SLP222 T01560111
Traffic Incident Summary
Active as of:
Severity:
Category:
InformationThere was an issue retrieving the traffic information for this location. Please try a different location or try again shortly.
Advertisements
Track Severe Weather on mobile